1944 Severe Tropical Cyclone NOT_NAMED (1944064S13132)


IBTrACS version v04r00. Visit IBTrACS website for data access.
Please direct all questions to the IBTrACS Q and A forum

Storm track - Intensity - Wind Radii - Intensity Data - Source Data - All data

Summary Information

Storm ID 1944064S13132
Start Mar 3 23Z
Landfall Mar 6 02Z, Mar 7 06Z, Mar 13 23Z
Max Intensity 70 kt (Mar 10 00Z), 970 mb (Mar 10 00Z)
End Mar 15 01Z
ATCF IDs
Track status Best track data.

Storm track plot

Map of storm track

Intensity plots

Map of storm track

Radial wind information

No radial wind information for this storm


Position and Intensity Table

BASIN ISO_TIME_________ NATURE LAT LON WMO PRES BOM PRES DS824 WIND DS824 PRES
degrees north degrees east mb mb kts mb
SI 1944-03-03 23:00:00 NR -12.90 131.80
SI 23:30:00 NR -12.93 131.62 998 998
SI 1944-03-04 00:00:00 TS -12.96 131.52 35 998
SI 03:00:00 TS -13.01 131.36
SI 06:00:00 TS -13.09 131.20
SI 09:00:00 TS -13.16 131.05
SI 11:00:00 TS -13.21 130.97
SI 12:00:00 TS -13.23 130.93
SI 15:00:00 TS -13.31 130.80
SI 18:00:00 TS -13.40 130.67
SI 21:00:00 TS -13.50 130.53
SI 23:00:00 TS -13.58 130.42
SI 23:30:00 TS -13.60 130.40 997 997
SI 1944-03-05 00:00:00 TS -13.62 130.37 35 997
SI 03:00:00 TS -13.75 130.19
SI 06:00:00 TS -13.90 129.98
SI 09:00:00 TS -14.05 129.76
SI 11:00:00 TS -14.15 129.60
SI 11:30:00 TS -14.17 129.56
SI 12:00:00 TS -14.20 129.52
SI 15:00:00 TS -14.33 129.28
SI 18:00:00 TS -14.46 129.01
SI 21:00:00 TS -14.59 128.72
SI 23:00:00 TS -14.68 128.52
SI 23:30:00 TS -14.71 128.46 990 990
SI 1944-03-06 00:00:00 TS -14.73 128.41 45 990
SI 02:00:00 TS -14.82 128.19
SI 03:00:00 TS -14.86 128.07
SI 06:00:00 TS -14.93 127.72
SI 09:00:00 TS -14.95 127.36
SI 11:00:00 TS -14.95 127.11
SI 12:00:00 TS -14.95 126.99
SI 15:00:00 TS -14.95 126.64
SI 18:00:00 TS -14.94 126.29
SI 21:00:00 TS -14.94 125.95
SI 23:00:00 TS -14.96 125.73
SI 23:30:00 TS -14.97 125.67 995 995
SI 1944-03-07 00:00:00 TS -14.97 125.61 40 995
SI 03:00:00 TS -15.04 125.29
SI 04:00:00 TS -15.06 125.18
SI 06:00:00 TS -15.10 124.97
SI 09:00:00 TS -15.16 124.66
SI 11:00:00 TS -15.20 124.46
SI 12:00:00 TS -15.22 124.35
SI 15:00:00 TS -15.28 124.04
SI 18:00:00 TS -15.34 123.74
SI 21:00:00 TS -15.41 123.46
SI 23:00:00 TS -15.45 123.28
SI 1944-03-08 00:00:00 TS -15.47 123.20 50 988
SI 01:00:00 TS -15.49 123.13 988 988
SI 03:00:00 TS -15.53 122.99
SI 06:00:00 TS -15.59 122.79
SI 09:00:00 TS -15.65 122.61
SI 11:00:00 TS -15.70 122.48
SI 12:00:00 TS -15.72 122.42
SI 15:00:00 TS -15.79 122.22
SI 18:00:00 TS -15.87 122.01
SI 21:00:00 TS -15.96 121.75
SI 23:00:00 TS -16.03 121.55
SI 1944-03-09 00:00:00 TS -16.07 121.43 60 980
SI 01:00:00 TS -16.11 121.31 980 980
SI 03:00:00 TS -16.19 121.03
SI 06:00:00 TS -16.32 120.57
SI 09:00:00 TS -16.47 120.08
SI 11:00:00 TS -16.58 119.74
SI 12:00:00 TS -16.63 119.57
SI 15:00:00 TS -16.80 119.07
SI 18:00:00 TS -16.98 118.56
SI 21:00:00 TS -17.16 118.05
SI 23:00:00 TS -17.29 117.72
SI 1944-03-10 00:00:00 TS -17.35 117.56 70 970
SI 01:00:00 TS -17.41 117.40 970 970
SI 03:00:00 TS -17.54 117.08
SI 06:00:00 TS -17.73 116.60
SI 09:00:00 TS -17.95 116.13
SI 11:00:00 TS -18.10 115.83
SI 12:00:00 TS -18.19 115.67
SI 15:00:00 TS -18.45 115.21
SI 18:00:00 TS -18.72 114.77
SI 21:00:00 TS -19.01 114.38
SI 23:00:00 TS -19.21 114.16
SI 1944-03-11 00:00:00 TS -19.30 114.07 70 970
SI 01:00:00 TS -19.39 113.98 970 970
SI 03:00:00 TS -19.57 113.84
SI 06:00:00 TS -19.84 113.68
SI 09:00:00 TS -20.12 113.57
SI 11:00:00 TS -20.30 113.50
SI 12:00:00 TS -20.39 113.47
SI 15:00:00 TS -20.65 113.37
SI 18:00:00 TS -20.94 113.29
SI 21:00:00 TS -21.25 113.19
SI 23:00:00 TS -21.48 113.11
SI 1944-03-12 00:00:00 TS -21.61 113.07 65 975
SI 01:00:00 TS -21.74 113.00 975 975
SI 03:00:00 TS -21.99 112.83
SI 06:00:00 TS -22.40 112.55
SI 09:00:00 TS -22.84 112.26
SI 11:00:00 TS -23.14 112.07
SI 12:00:00 TS -23.29 111.98
SI 15:00:00 TS -23.76 111.71
SI 18:00:00 TS -24.26 111.49
SI 21:00:00 TS -24.83 111.38
SI 23:00:00 TS -25.24 111.37
SI 1944-03-13 00:00:00 TS -25.46 111.40 55 985
SI 01:00:00 TS -25.69 111.43 985 985
SI 03:00:00 TS -26.21 111.54
SI 06:00:00 TS -27.01 111.81
SI 09:00:00 TS -27.78 112.21
SI 11:00:00 TS -28.25 112.54
SI 12:00:00 TS -28.47 112.72
SI 15:00:00 TS -29.07 113.35
SI 18:00:00 TS -29.60 114.06
SI 21:00:00 TS -30.00 114.79
SI 22:00:00 TS -30.07 115.02
SI 23:00:00 TS -30.12 115.24
SI 1944-03-14 00:00:00 TS -30.12 115.48 30 1000
SI 01:00:00 TS -30.23 115.78 1000 1000
SI 03:00:00 TS -30.43 116.46
SI 06:00:00 TS -30.73 117.65
SI 09:00:00 TS -31.00 119.00
SI 12:00:00 TS -31.24 120.50
SI 15:00:00 TS -31.45 122.12
SI 18:00:00 TS -31.62 123.80
SI 21:00:00 TS -31.79 125.58
SI 1944-03-15 00:00:00 TS -31.93 127.40 15 1012
SI 01:00:00 NR -32.00 128.00 1012 1012

Source Information

Agency Information
USA
TOKYO
CMA
HKO
NEWDELHI
REUNION
BOM IDCKMSTM0S.csv:Line=1185:unnamed
NADI
WELLINGTON
DS824 aus_area.dat:124:NOT NAMED
TD9636 cons_worldwide_trop_cyclone_18710101-19891231-006:Line=2747
TD9635
NEUMANN
MLC

All available IBTrACS Data

SEASON BASIN SUBBASIN ISO_TIME_________ NATURE LAT LON WMO PRES WMO AGENCY DIST2LAND LANDFALL IFLAG USA SSHS BOM LAT BOM LON BOM PRES BOM PRES_METHOD DS824 LAT DS824 LON DS824 STAGE DS824 WIND DS824 PRES TD9636 LAT TD9636 LON TD9636 STAGE STORM SPEED STORM DIR
Year degrees north degrees east mb km km 1 degrees north degrees east mb degrees north degrees east kts mb degrees north degrees east kts degrees
1944 SI WA 1944-03-03 23:00:00 NR -12.90 131.80 0 0 __________O___ -1 -12.90 131.80 7 22 259
1944 SI WA 23:30:00 NR -12.93 131.62 998 bom 0 0 ______O___P___ -1 -13.00 131.30 998 -12.90 131.78 7 17 259
1944 SI WA 1944-03-04 00:00:00 TS -12.96 131.52 0 0 ______P__OP___ -1 -13.02 131.28 -13.00 131.30 TC 35 998 -12.90 131.76 7 4 252
1944 SI WA 03:00:00 TS -13.01 131.36 0 0 ______P__PP___ -1 -13.11 131.15 -13.09 131.17 TC -12.90 131.62 7 3 247
1944 SI WA 06:00:00 TS -13.09 131.20 0 0 ______P__PP___ -1 -13.20 131.02 -13.19 131.04 TC -12.90 131.49 7 3 243
1944 SI WA 09:00:00 TS -13.16 131.05 0 0 ______P__PP___ -1 -13.30 130.88 -13.29 130.90 TC -12.90 131.37 7 3 241
1944 SI WA 11:00:00 TS -13.21 130.97 0 0 ______P__PO___ -1 -13.37 130.79 -13.36 130.81 TC -12.90 131.30 7 3 241
1944 SI WA 12:00:00 TS -13.23 130.93 0 0 ______P__PP___ -1 -13.41 130.75 -13.39 130.77 TC -12.90 131.27 7 3 238
1944 SI WA 15:00:00 TS -13.31 130.80 0 0 ______P__PP___ -1 -13.52 130.61 -13.50 130.63 TC -12.90 131.17 7 3 237
1944 SI WA 18:00:00 TS -13.40 130.67 0 0 ______P__PP___ -1 -13.64 130.47 -13.62 130.49 TC -12.92 131.06 7 3 235
1944 SI WA 21:00:00 TS -13.50 130.53 0 0 ______P__PP___ -1 -13.78 130.32 -13.76 130.35 TC -12.96 130.92 7 4 233
1944 SI WA 23:00:00 TS -13.58 130.42 0 0 ______P__PO___ -1 -13.87 130.23 -13.85 130.25 TC -13.00 130.80 7 4 233
1944 SI WA 23:30:00 TS -13.60 130.40 997 bom 0 0 ______O__PP___ -1 -13.90 130.20 997 -13.87 130.23 TC -13.01 130.77 7 4 233
1944 SI WA 1944-03-05 00:00:00 TS -13.62 130.37 0 0 ______P__OP___ -1 -13.93 130.17 -13.90 130.20 TC 35 997 -13.02 130.73 7 4 233
1944 SI WA 03:00:00 TS -13.75 130.19 0 0 ______P__PP___ -1 -14.08 130.02 -14.06 130.05 TC -13.11 130.49 7 5 233
1944 SI WA 06:00:00 TS -13.90 129.98 0 0 ______P__PP___ -1 -14.24 129.85 -14.22 129.88 TC -13.23 130.21 7 5 234
1944 SI WA 09:00:00 TS -14.05 129.76 0 0 ______P__PP___ -1 -14.39 129.67 -14.37 129.70 TC -13.38 129.91 7 5 236
1944 SI WA 11:00:00 TS -14.15 129.60 0 0 ______P__PO___ -1 -14.48 129.54 -14.46 129.57 TC -13.50 129.70 7 6 237
1944 SI WA 11:30:00 TS -14.17 129.56 bom 0 0 ______O__PP___ -1 -14.50 129.50 -14.48 129.54 TC -13.54 129.65 7 6 240
1944 SI WA 12:00:00 TS -14.20 129.52 0 0 ______P__OP___ -1 -14.51 129.47 -14.50 129.50 TC -13.58 129.60 7 5 240
1944 SI WA 15:00:00 TS -14.33 129.28 10 10 ______P__PP___ -1 -14.55 129.26 -14.60 129.29 TC -13.83 129.28 7 6 242
1944 SI WA 18:00:00 TS -14.46 129.01 44 33 ______P__PP___ -1 -14.59 129.03 -14.68 129.05 TC -14.11 128.96 7 6 244
1944 SI WA 21:00:00 TS -14.59 128.72 33 22 ______P__PP___ -1 -14.67 128.76 -14.75 128.79 TC -14.36 128.62 7 6 245
1944 SI WA 23:00:00 TS -14.68 128.52 22 22 ______P__PO___ -1 -14.77 128.56 -14.78 128.60 TC -14.50 128.40 7 7 245
1944 SI WA 23:30:00 TS -14.71 128.46 990 bom 22 21 ______O__PP___ -1 -14.80 128.50 990 -14.79 128.55 TC -14.53 128.34 7 7 246
1944 SI WA 1944-03-06 00:00:00 TS -14.73 128.41 21 0 ______P__OP___ -1 -14.84 128.44 -14.80 128.50 TC 45 990 -14.55 128.29 7 7 247
1944 SI WA 02:00:00 TS -14.82 128.19 bom 0 0 ______O__PP___ -1 -15.00 128.20 -14.83 128.29 TC -14.63 128.07 7 7 249
1944 SI WA 03:00:00 TS -14.86 128.07 0 0 ______P__PP___ -1 -15.06 128.08 -14.85 128.18 TC -14.67 127.96 7 7 257
1944 SI WA 06:00:00 TS -14.93 127.72 0 0 ______P__PP___ -1 -15.16 127.70 -14.88 127.82 TC -14.74 127.63 7 7 262
1944 SI WA 09:00:00 TS -14.95 127.36 0 0 ______P__PP___ -1 -15.17 127.32 -14.90 127.45 TC -14.78 127.31 7 7 267
1944 SI WA 11:00:00 TS -14.95 127.11 0 0 ______P__PO___ -1 -15.15 127.06 -14.92 127.19 TC -14.80 127.10 7 7 270
1944 SI WA 12:00:00 TS -14.95 126.99 0 0 ______P__PP___ -1 -15.12 126.93 -14.92 127.05 TC -14.81 127.00 7 7 271
1944 SI WA 15:00:00 TS -14.95 126.64 0 0 ______P__PP___ -1 -15.05 126.54 -14.94 126.65 TC -14.85 126.73 7 7 271
1944 SI WA 18:00:00 TS -14.94 126.29 0 0 ______P__PP___ -1 -14.99 126.16 -14.95 126.26 TC -14.87 126.46 7 7 270
1944 SI WA 21:00:00 TS -14.94 125.95 0 0 ______P__PP___ -1 -14.96 125.79 -14.97 125.87 TC -14.89 126.19 7 7 268
1944 SI WA 23:00:00 TS -14.96 125.73 0 0 ______P__PO___ -1 -14.99 125.56 -14.99 125.62 TC -14.90 126.00 7 7 265
1944 SI WA 23:30:00 TS -14.97 125.67 995 bom 0 0 ______O__PP___ -1 -15.00 125.50 995 -14.99 125.56 TC -14.90 125.95 7 7 261
1944 SI WA 1944-03-07 00:00:00 TS -14.97 125.61 0 0 ______P__OP___ -1 -15.02 125.44 -15.00 125.50 TC 40 995 -14.90 125.90 7 6 259
1944 SI WA 03:00:00 TS -15.04 125.29 0 0 ______P__PP___ -1 -15.16 125.11 -15.05 125.17 TC -14.92 125.59 7 6 258
1944 SI WA 04:00:00 TS -15.06 125.18 bom 10 0 ______O__PP___ -1 -15.20 125.00 -15.07 125.07 TC -14.92 125.48 7 6 259
1944 SI WA 06:00:00 TS -15.10 124.97 0 0 ______P__PP___ -1 -15.27 124.79 -15.10 124.86 TC -14.93 125.26 7 6 259
1944 SI WA 09:00:00 TS -15.16 124.66 10 10 ______P__PP___ -1 -15.34 124.49 -15.16 124.56 TC -14.97 124.93 7 6 259
1944 SI WA 11:00:00 TS -15.20 124.46 31 31 ______P__PO___ -1 -15.38 124.30 -15.20 124.37 TC -15.00 124.70 7 6 259
1944 SI WA 12:00:00 TS -15.22 124.35 39 39 ______P__PP___ -1 -15.40 124.21 -15.23 124.28 TC -15.02 124.58 7 6 258
1944 SI WA 15:00:00 TS -15.28 124.04 54 54 ______P__PP___ -1 -15.43 123.94 -15.29 124.00 TC -15.11 124.20 7 6 258
1944 SI WA 18:00:00 TS -15.34 123.74 82 78 ______P__PP___ -1 -15.45 123.68 -15.36 123.73 TC -15.21 123.83 7 6 257
1944 SI WA 21:00:00 TS -15.41 123.46 92 92 ______P__PP___ -1 -15.47 123.43 -15.43 123.46 TC -15.33 123.49 7 6 256
1944 SI WA 23:00:00 TS -15.45 123.28 89 89 ______P__PO___ -1 -15.48 123.26 -15.48 123.29 TC -15.40 123.30 7 5 255
1944 SI WA 1944-03-08 00:00:00 TS -15.47 123.20 94 94 ______P__OP___ -1 -15.49 123.18 -15.50 123.20 TC 50 988 -15.43 123.22 7 5 255
1944 SI WA 01:00:00 TS -15.49 123.13 988 bom 101 101 ______O__PP___ -1 -15.50 123.10 988 -15.52 123.12 TC -15.47 123.16 7 4 254
1944 SI WA 03:00:00 TS -15.53 122.99 108 100 ______P__PP___ -1 -15.52 122.95 -15.54 122.97 TC -15.53 123.04 7 4 253
1944 SI WA 06:00:00 TS -15.59 122.79 101 95 ______P__PP___ -1 -15.56 122.73 -15.59 122.75 TC -15.63 122.90 7 4 252
1944 SI WA 09:00:00 TS -15.65 122.61 95 95 ______P__PP___ -1 -15.60 122.51 -15.63 122.53 TC -15.73 122.78 7 4 251
1944 SI WA 11:00:00 TS -15.70 122.48 99 99 ______P__PO___ -1 -15.63 122.37 -15.66 122.38 TC -15.80 122.70 7 4 251
1944 SI WA 12:00:00 TS -15.72 122.42 104 101 ______P__PP___ -1 -15.64 122.29 -15.68 122.30 TC -15.83 122.66 7 4 250
1944 SI WA 15:00:00 TS -15.79 122.22 108 108 ______P__PP___ -1 -15.70 122.06 -15.74 122.07 TC -15.93 122.54 7 4 250
1944 SI WA 18:00:00 TS -15.87 122.01 115 115 ______P__PP___ -1 -15.77 121.81 -15.81 121.81 TC -16.02 122.40 7 5 250
1944 SI WA 21:00:00 TS -15.96 121.75 132 132 ______P__PP___ -1 -15.85 121.53 -15.89 121.52 TC -16.13 122.19 7 6 250
1944 SI WA 23:00:00 TS -16.03 121.55 146 139 ______P__PO___ -1 -15.92 121.32 -15.96 121.31 TC -16.20 122.00 7 6 250
1944 SI WA 1944-03-09 00:00:00 TS -16.07 121.43 147 147 ______P__OP___ -1 -15.96 121.21 -16.00 121.20 TC 60 980 -16.24 121.88 7 7 252
1944 SI WA 01:00:00 TS -16.11 121.31 980 bom 154 154 ______O__PP___ -1 -16.00 121.10 980 -16.04 121.07 TC -16.28 121.74 7 8 253
1944 SI WA 03:00:00 TS -16.19 121.03 171 171 ______P__PP___ -1 -16.08 120.84 -16.12 120.81 TC -16.36 121.44 7 9 253
1944 SI WA 06:00:00 TS -16.32 120.57 202 202 ______P__PP___ -1 -16.23 120.40 -16.26 120.38 TC -16.49 120.93 7 10 253
1944 SI WA 09:00:00 TS -16.47 120.08 240 240 ______P__PP___ -1 -16.39 119.94 -16.41 119.92 TC -16.61 120.37 7 10 252
1944 SI WA 11:00:00 TS -16.58 119.74 277 277 ______P__PO___ -1 -16.51 119.61 -16.52 119.60 TC -16.70 120.00 7 10 252
1944 SI WA 12:00:00 TS -16.63 119.57 287 287 ______P__PP___ -1 -16.57 119.45 -16.58 119.44 TC -16.74 119.83 7 10 251
1944 SI WA 15:00:00 TS -16.80 119.07 331 331 ______P__PP___ -1 -16.76 118.95 -16.77 118.95 TC -16.87 119.31 7 10 250
1944 SI WA 18:00:00 TS -16.98 118.56 350 341 ______P__PP___ -1 -16.97 118.44 -16.96 118.46 TC -16.99 118.78 7 10 250
1944 SI WA 21:00:00 TS -17.16 118.05 341 341 ______P__PP___ -1 -17.19 117.94 -17.18 117.97 TC -17.12 118.25 7 10 249
1944 SI WA 23:00:00 TS -17.29 117.72 346 346 ______P__PO___ -1 -17.34 117.62 -17.32 117.65 TC -17.20 117.90 7 10 248
1944 SI WA 1944-03-10 00:00:00 TS -17.35 117.56 339 339 ______P__OP___ -1 -17.42 117.46 -17.40 117.50 TC 70 970 -17.23 117.72 7 10 248
1944 SI WA 01:00:00 TS -17.41 117.40 970 bom 343 335 ______O__PP___ -1 -17.50 117.30 970 -17.47 117.35 TC -17.27 117.55 7 10 248
1944 SI WA 03:00:00 TS -17.54 117.08 341 324 ______P__PP___ -1 -17.65 117.00 -17.63 117.04 TC -17.33 117.20 7 10 247
1944 SI WA 06:00:00 TS -17.73 116.60 324 304 ______P__PP___ -1 -17.89 116.55 -17.87 116.58 TC -17.44 116.67 7 10 245
1944 SI WA 09:00:00 TS -17.95 116.13 308 291 ______P__PP___ -1 -18.14 116.11 -18.12 116.14 TC -17.58 116.15 7 10 243
1944 SI WA 11:00:00 TS -18.10 115.83 295 288 ______P__PO___ -1 -18.31 115.83 -18.29 115.85 TC -17.70 115.80 7 10 242
1944 SI WA 12:00:00 TS -18.19 115.67 288 281 ______P__PP___ -1 -18.40 115.69 -18.38 115.71 TC -17.77 115.60 7 10 240
1944 SI WA 15:00:00 TS -18.45 115.21 292 281 ______P__PP___ -1 -18.67 115.30 -18.65 115.31 TC -18.01 115.01 7 10 238
1944 SI WA 18:00:00 TS -18.72 114.77 286 279 ______P__PP___ -1 -18.94 114.93 -18.93 114.94 TC -18.29 114.44 7 10 234
1944 SI WA 21:00:00 TS -19.01 114.38 282 276 ______P__PP___ -1 -19.22 114.59 -19.22 114.60 TC -18.60 113.95 7 9 230
1944 SI WA 23:00:00 TS -19.21 114.16 276 275 ______P__PO___ -1 -19.41 114.39 -19.40 114.39 TC -18.80 113.70 7 8 226
1944 SI WA 1944-03-11 00:00:00 TS -19.30 114.07 275 273 ______P__OP___ -1 -19.51 114.29 -19.50 114.30 TC 70 970 -18.90 113.61 7 8 222
1944 SI WA 01:00:00 TS -19.39 113.98 970 bom 273 256 ______O__PP___ -1 -19.60 114.20 970 4 -19.58 114.22 TC -19.00 113.53 7 7 218
1944 SI WA 03:00:00 TS -19.57 113.84 258 236 ______P__PP___ -1 -19.77 114.04 -19.75 114.06 TC -19.20 113.42 7 6 212
1944 SI WA 06:00:00 TS -19.84 113.68 236 205 ______P__PP___ -1 -20.02 113.84 -20.01 113.87 TC -19.50 113.34 7 6 205
1944 SI WA 09:00:00 TS -20.12 113.57 205 186 ______P__PP___ -1 -20.28 113.67 -20.27 113.71 TC -19.80 113.31 7 6 201
1944 SI WA 11:00:00 TS -20.30 113.50 186 175 ______P__PO___ -1 -20.45 113.58 -20.45 113.62 TC -20.00 113.30 7 6 199
1944 SI WA 12:00:00 TS -20.39 113.47 175 158 ______P__PP___ -1 -20.54 113.53 -20.54 113.58 TC -20.08 113.28 7 6 199
1944 SI WA 15:00:00 TS -20.65 113.37 147 133 ______P__PP___ -1 -20.82 113.41 -20.83 113.46 TC -20.31 113.25 7 6 197
1944 SI WA 18:00:00 TS -20.94 113.29 133 113 ______P__PP___ -1 -21.12 113.29 -21.13 113.35 TC -20.56 113.22 7 6 196
1944 SI WA 21:00:00 TS -21.25 113.19 113 99 ______P__PP___ -1 -21.44 113.18 -21.45 113.23 TC -20.86 113.16 7 7 197
1944 SI WA 23:00:00 TS -21.48 113.11 103 98 ______P__PO___ -1 -21.66 113.09 -21.68 113.15 TC -21.10 113.10 7 8 197
1944 SI WA 1944-03-12 00:00:00 TS -21.61 113.07 98 98 ______P__OP___ -1 -21.78 113.05 -21.80 113.10 TC 65 975 -21.25 113.05 7 8 203
1944 SI WA 01:00:00 TS -21.74 113.00 975 bom 103 98 ______O__PP___ -1 -21.90 113.00 975 -21.92 113.01 TC -21.40 113.00 7 9 210
1944 SI WA 03:00:00 TS -21.99 112.83 106 99 ______P__PP___ -1 -22.09 112.80 -22.16 112.81 TC -21.74 112.88 7 9 212
1944 SI WA 06:00:00 TS -22.40 112.55 115 113 ______P__PP___ -1 -22.37 112.49 -22.54 112.49 TC -22.30 112.67 7 10 212
1944 SI WA 09:00:00 TS -22.84 112.26 135 135 ______P__PP___ -1 -22.68 112.16 -22.94 112.17 TC -22.90 112.45 7 10 211
1944 SI WA 11:00:00 TS -23.14 112.07 163 162 ______P__PO___ -1 -22.91 111.95 -23.22 111.97 TC -23.30 112.30 7 10 210
1944 SI WA 12:00:00 TS -23.29 111.98 166 166 ______P__PP___ -1 -23.03 111.85 -23.36 111.88 TC -23.48 112.21 7 11 209
1944 SI WA 15:00:00 TS -23.76 111.71 183 181 ______P__PP___ -1 -23.45 111.58 -23.81 111.63 TC -24.02 111.91 7 11 204
1944 SI WA 18:00:00 TS -24.26 111.49 192 192 ______P__PP___ -1 -23.94 111.38 -24.28 111.45 TC -24.57 111.66 7 11 196
1944 SI WA 21:00:00 TS -24.83 111.38 206 206 ______P__PP___ -1 -24.53 111.26 -24.78 111.36 TC -25.17 111.51 7 12 186
1944 SI WA 23:00:00 TS -25.24 111.37 208 203 ______P__PO___ -1 -24.99 111.25 -25.12 111.37 TC -25.60 111.50 7 13 0
1944 SI WA 1944-03-13 00:00:00 TS -25.46 111.40 201 195 ______P__OP___ -1 -25.24 111.27 -25.30 111.40 TC 55 985 -25.84 111.53 7 14 172
1944 SI WA 01:00:00 TS -25.69 111.43 985 bom 195 179 ______O__PP___ -1 -25.50 111.30 985 -25.49 111.42 TC -26.09 111.59 7 15 170
1944 SI WA 03:00:00 TS -26.21 111.54 179 162 ______P__PP___ -1 -26.12 111.39 -25.89 111.49 TC -26.61 111.75 7 16 166
1944 SI WA 06:00:00 TS -27.01 111.81 168 165 ______P__PP___ -1 -27.10 111.62 -26.51 111.69 TC -27.42 112.13 7 17 159
1944 SI WA 09:00:00 TS -27.78 112.21 bom 181 163 ______O__PP___ -1 -28.00 112.00 -27.15 112.00 TC -28.21 112.62 7 17 153
1944 SI WA 11:00:00 TS -28.25 112.54 166 150 ______P__PO___ -1 -28.48 112.34 -27.58 112.27 TC -28.70 113.00 7 17 146
1944 SI WA 12:00:00 TS -28.47 112.72 153 128 ______P__PP___ -1 -28.69 112.54 -27.79 112.43 TC -28.93 113.20 7 16 139
1944 SI WA 15:00:00 TS -29.07 113.35 130 95 ______P__PP___ -1 -29.23 113.22 -28.42 112.98 TC -29.57 113.84 7 16 134
1944 SI WA 18:00:00 TS -29.60 114.06 86 19 ______P__PP___ -1 -29.63 113.98 -29.03 113.67 TC -30.14 114.51 7 16 127
1944 SI WA 21:00:00 TS -30.00 114.79 19 9 ______P__PP___ -1 -29.92 114.75 -29.59 114.51 TC -30.66 115.22 7 14 120
1944 SI WA 22:00:00 TS -30.07 115.02 bom 9 0 ______O__PP___ -1 -30.00 115.00 -29.77 114.82 TC -30.83 115.46 7 12 106
1944 SI WA 23:00:00 TS -30.12 115.24 0 0 ______P__PO___ -1 -30.07 115.22 -29.94 115.15 TC -31.00 115.70 7 12 97
1944 SI WA 1944-03-14 00:00:00 TS -30.12 115.48 0 0 ______P__O____ -1 -30.14 115.45 -30.10 115.50 TC 30 1000 7 14 103
1944 SI WA 01:00:00 TS -30.23 115.78 1000 bom 0 0 ______O__P____ -1 -30.20 115.70 1000 -30.25 115.86 TC 7 18 110
1944 SI WA 03:00:00 TS -30.43 116.46 0 0 ______P__P____ -1 -30.33 116.28 -30.53 116.64 TC 7 20 107
1944 SI WA 06:00:00 TS -30.73 117.65 0 0 ______P__P____ -1 -30.55 117.36 -30.90 117.93 TC 7 23 104
1944 SI WA 09:00:00 TS -31.00 119.00 0 0 ______P__P____ -1 -30.80 118.66 -31.20 119.34 TC 7 25 102
1944 SI WA 12:00:00 TS -31.24 120.50 0 0 ______P__P____ -1 -31.05 120.15 -31.43 120.85 TC 27 100
1944 SI WA 15:00:00 TS -31.45 122.12 0 0 ______P__P____ -1 -31.29 121.81 -31.62 122.44 TC 28 98
1944 SI WA 18:00:00 TS -31.62 123.80 0 0 ______P__P____ -1 -31.53 123.58 -31.75 124.10 TC 30 96
1944 SI WA 21:00:00 TS -31.79 125.58 0 0 ______P__P____ -1 -31.75 125.44 -31.84 125.79 TC 31 96
1944 SI WA 1944-03-15 00:00:00 TS -31.93 127.40 0 0 ______P__O____ -1 -31.94 127.36 -31.90 127.50 TC 15 1012 31 96
1944 SI WA 01:00:00 NR -32.00 128.00 1012 bom 0 ______O_______ -1 -32.00 128.00 1012 TC 31 98